Time;durP1;ratioP1;P1;durP2;ratioP2;P2;SDS_P1;SDS_P2;PMS_P1;PMS_P2;Temp;Humidity;BMP_temperature;BMP_pressure;BME280_temperature;BME280_humidity;BME280_pressure;Samples;Min_cycle;Max_cycle;Signal;HPM_P1;HPM_P2
2023/04/21 00:00:08;0.00;0.00;0.62;0.00;0.00;0.62;2.70;2.33;;;24.70;19.90;;;;;;2272225;61;20420;-62
2023/04/21 00:02:53;0.00;0.00;0.62;0.00;0.00;0.62;2.50;2.20;;;24.70;19.90;;;;;;2271566;61;20377;-62
2023/04/21 00:05:41;0.00;0.00;0.62;0.00;0.00;0.62;2.00;1.60;;;24.70;19.90;;;;;;2272425;61;20450;-63
2023/04/21 00:08:29;0.00;0.00;0.62;0.00;0.00;0.62;2.87;2.27;;;24.70;19.90;;;;;;2271919;61;20500;-62
2023/04/21 00:11:14;0.00;0.00;0.62;0.00;0.00;0.62;2.67;2.10;;;24.70;19.90;;;;;;2272084;61;20496;-63
2023/04/21 00:13:58;0.00;0.00;0.62;0.00;0.00;0.62;2.30;1.80;;;24.70;19.90;;;;;;2272479;61;20449;-66
2023/04/21 00:16:43;0.00;0.00;0.62;0.00;0.00;0.62;2.23;2.03;;;24.70;19.90;;;;;;2271702;61;20358;-63
2023/04/21 00:19:28;0.00;0.00;0.62;0.00;0.00;0.62;2.23;2.03;;;24.70;19.90;;;;;;2271984;61;20933;-63
2023/04/21 00:22:13;0.00;0.00;0.62;0.00;0.00;0.62;2.70;2.13;;;24.70;19.90;;;;;;2269182;61;20435;-62
2023/04/21 00:24:59;0.00;0.00;0.62;0.00;0.00;0.62;2.07;1.70;;;24.60;19.90;;;;;;2271614;61;20358;-63
2023/04/21 00:27:44;0.00;0.00;0.62;0.00;0.00;0.62;2.20;2.00;;;24.70;19.90;;;;;;2272535;61;20362;-63
2023/04/21 00:30:30;0.00;0.00;0.62;0.00;0.00;0.62;2.20;1.93;;;24.60;19.90;;;;;;2271014;61;20381;-63
2023/04/21 00:33:15;0.00;0.00;0.62;0.00;0.00;0.62;2.60;2.20;;;24.60;19.90;;;;;;2272225;61;20373;-62
2023/04/21 00:36:00;0.00;0.00;0.62;0.00;0.00;0.62;3.70;2.00;;;24.70;20.00;;;;;;2273067;61;20420;-62
2023/04/21 00:41:53;0.00;0.00;0.62;0.00;0.00;0.62;2.30;2.10;;;24.70;20.00;;;;;;2278474;60;20385;-63
2023/04/21 00:44:37;0.00;0.00;0.62;0.00;0.00;0.62;2.00;1.53;;;24.60;19.90;;;;;;2273872;60;20484;-65
2023/04/21 00:47:22;0.00;0.00;0.62;0.00;0.00;0.62;2.17;1.93;;;24.60;19.90;;;;;;2273252;60;20383;-62
2023/04/21 00:50:09;0.00;0.00;0.62;0.00;0.00;0.62;2.30;2.10;;;24.60;19.90;;;;;;2276271;60;20512;-63
2023/04/21 00:52:56;0.00;0.00;0.62;0.00;0.00;0.62;2.33;2.10;;;24.60;19.90;;;;;;2273407;60;20773;-67
2023/04/21 00:55:41;0.00;0.00;0.62;0.00;0.00;0.62;2.93;2.30;;;24.60;19.90;;;;;;2273899;60;20753;-62
2023/04/21 00:58:28;0.00;0.00;0.62;0.00;0.00;0.62;2.80;2.30;;;24.60;19.90;;;;;;2273692;60;20462;-63
2023/04/21 01:01:13;0.00;0.00;0.62;0.00;0.00;0.62;3.20;2.40;;;24.60;20.00;;;;;;2276163;60;20384;-64
2023/04/21 01:03:59;0.00;0.00;0.62;0.00;0.00;0.62;2.37;2.00;;;24.60;19.90;;;;;;2276987;60;20426;-63
2023/04/21 01:06:44;0.00;0.00;0.62;0.00;0.00;0.62;3.53;2.17;;;24.60;19.90;;;;;;2273937;60;20362;-62
2023/04/21 01:09:29;0.00;0.00;0.62;0.00;0.00;0.62;1.90;1.70;;;24.60;20.00;;;;;;2275795;60;20462;-62
2023/04/21 01:12:14;0.00;0.00;0.62;0.00;0.00;0.62;2.80;1.93;;;24.60;20.00;;;;;;2273475;60;20357;-68
2023/04/21 01:15:00;0.00;0.00;0.62;0.00;0.00;0.62;2.33;2.00;;;24.60;20.00;;;;;;2273528;60;20774;-63
2023/04/21 01:17:45;0.00;0.00;0.62;0.00;0.00;0.62;2.10;1.80;;;24.60;20.00;;;;;;2273526;60;20931;-63
2023/04/21 01:20:32;0.00;0.00;0.62;0.00;0.00;0.62;2.37;2.17;;;24.60;20.00;;;;;;2273311;60;20506;-63
2023/04/21 01:23:19;0.00;0.00;0.62;0.00;0.00;0.62;2.53;2.33;;;24.60;20.00;;;;;;2276226;60;20438;-62
2023/04/21 01:26:05;0.00;0.00;0.62;0.00;0.00;0.62;2.27;1.73;;;24.60;20.00;;;;;;2277052;60;20365;-65
2023/04/21 01:28:56;0.00;0.00;0.62;0.00;0.00;0.62;2.10;1.87;;;24.60;20.00;;;;;;2276787;60;20404;-62
2023/04/21 01:31:41;0.00;0.00;0.62;0.00;0.00;0.62;2.50;2.30;;;24.60;20.00;;;;;;2276025;60;20349;-63
2023/04/21 01:34:25;0.00;0.00;0.62;0.00;0.00;0.62;3.03;2.10;;;24.60;20.00;;;;;;2273700;60;20407;-62
2023/04/21 01:37:13;0.00;0.00;0.62;0.00;0.00;0.62;2.47;2.17;;;24.60;20.00;;;;;;2276510;60;20430;-62
2023/04/21 01:40:04;0.00;0.00;0.62;0.00;0.00;0.62;2.20;2.00;;;24.60;20.00;;;;;;2270085;60;20769;-62
2023/04/21 01:42:51;0.00;0.00;0.62;0.00;0.00;0.62;2.47;2.20;;;24.60;20.00;;;;;;2277082;60;20365;-63
2023/04/21 01:45:35;0.00;0.00;0.62;0.00;0.00;0.62;3.10;2.80;;;24.60;20.00;;;;;;2276262;60;20403;-64
2023/04/21 01:48:22;0.00;0.00;0.62;0.00;0.00;0.62;2.17;1.80;;;24.60;20.00;;;;;;2273667;60;20381;-65
2023/04/21 01:51:06;0.00;0.00;0.62;0.00;0.00;0.62;2.23;2.00;;;24.60;20.00;;;;;;2273417;60;20357;-63
2023/04/21 01:53:51;0.00;0.00;0.62;0.00;0.00;0.62;2.90;2.57;;;24.60;20.00;;;;;;2275815;60;20358;-68
2023/04/21 01:56:37;0.00;0.00;0.62;0.00;0.00;0.62;2.37;2.17;;;24.60;20.00;;;;;;2273946;60;20361;-62
2023/04/21 01:59:36;0.00;0.00;0.62;0.00;0.00;0.62;2.50;2.10;;;24.60;20.00;;;;;;2342118;39;20462;-64
2023/04/21 02:02:20;0.00;0.00;0.62;0.00;0.00;0.62;2.40;1.80;;;24.60;20.00;;;;;;2274517;60;20785;-63
2023/04/21 02:05:06;0.00;0.00;0.62;0.00;0.00;0.62;2.10;1.77;;;24.60;20.00;;;;;;2273527;60;20419;-63
2023/04/21 02:07:51;0.00;0.00;0.62;0.00;0.00;0.62;2.57;2.20;;;24.60;20.10;;;;;;2276042;60;20996;-64
2023/04/21 02:10:36;0.00;0.00;0.62;0.00;0.00;0.62;2.73;2.00;;;24.60;20.10;;;;;;2276610;60;20360;-63
2023/04/21 02:13:23;0.00;0.00;0.62;0.00;0.00;0.62;2.20;1.80;;;24.60;20.00;;;;;;2273667;60;20409;-63
2023/04/21 02:16:09;0.00;0.00;0.62;0.00;0.00;0.62;2.17;1.77;;;24.50;20.00;;;;;;2272796;60;20921;-63
2023/04/21 02:18:55;0.00;0.00;0.62;0.00;0.00;0.62;2.07;1.70;;;24.60;20.10;;;;;;2273261;60;20434;-64
2023/04/21 02:21:40;0.00;0.00;0.62;0.00;0.00;0.62;2.40;2.20;;;24.50;20.00;;;;;;2273164;60;20389;-62
2023/04/21 02:24:25;0.00;0.00;0.62;0.00;0.00;0.62;2.33;1.93;;;24.60;20.10;;;;;;2276337;60;20361;-68
2023/04/21 02:27:11;0.00;0.00;0.62;0.00;0.00;0.62;2.03;1.80;;;24.60;20.10;;;;;;2276337;60;20391;-62
2023/04/21 02:29:57;0.00;0.00;0.62;0.00;0.00;0.62;2.63;2.43;;;24.50;20.00;;;;;;2272485;60;20397;-64
2023/04/21 02:32:42;0.00;0.00;0.62;0.00;0.00;0.62;2.20;2.00;;;24.50;20.00;;;;;;2276836;60;20362;-62
2023/04/21 02:35:28;0.00;0.00;0.62;0.00;0.00;0.62;1.70;1.50;;;24.50;20.00;;;;;;2273546;60;20349;-63
2023/04/21 02:38:15;0.00;0.00;0.62;0.00;0.00;0.62;2.10;1.70;;;24.60;20.10;;;;;;2275756;60;20396;-64
2023/04/21 02:41:00;0.00;0.00;0.62;0.00;0.00;0.62;2.20;1.83;;;24.60;20.10;;;;;;2273258;60;20397;-62
2023/04/21 02:43:45;0.00;0.00;0.62;0.00;0.00;0.62;2.70;2.27;;;24.50;20.00;;;;;;2276139;60;20865;-63
2023/04/21 02:46:31;0.00;0.00;0.62;0.00;0.00;0.62;2.00;1.70;;;24.50;20.00;;;;;;2276250;60;20353;-63
2023/04/21 02:49:17;0.00;0.00;0.62;0.00;0.00;0.62;2.00;1.77;;;24.50;20.00;;;;;;2273255;60;20451;-63
2023/04/21 02:52:01;0.00;0.00;0.62;0.00;0.00;0.62;2.17;1.93;;;24.50;20.00;;;;;;2275943;60;20881;-64
2023/04/21 02:54:46;0.00;0.00;0.62;0.00;0.00;0.62;2.10;1.70;;;24.50;20.00;;;;;;2276642;60;20415;-64
2023/04/21 02:57:31;0.00;0.00;0.62;0.00;0.00;0.62;2.20;2.00;;;24.50;20.00;;;;;;2273444;60;20365;-62
2023/04/21 03:00:19;0.00;0.00;0.62;0.00;0.00;0.62;2.17;1.87;;;24.50;20.10;;;;;;2271949;60;20365;-63
2023/04/21 03:03:05;0.00;0.00;0.62;0.00;0.00;0.62;2.00;1.80;;;24.50;20.00;;;;;;2273557;60;20388;-63
2023/04/21 03:05:56;0.00;0.00;0.62;0.00;0.00;0.62;1.93;1.57;;;24.50;20.00;;;;;;2272999;60;20834;-62
2023/04/21 03:08:41;0.00;0.00;0.62;0.00;0.00;0.62;2.10;1.90;;;24.50;20.10;;;;;;2276068;60;20384;-62
2023/04/21 03:11:25;0.00;0.00;0.62;0.00;0.00;0.62;2.20;2.00;;;24.50;20.10;;;;;;2273401;60;20349;-63
2023/04/21 03:14:11;0.00;0.00;0.62;0.00;0.00;0.62;2.27;1.90;;;24.50;20.00;;;;;;2275891;60;20770;-63
2023/04/21 03:16:56;0.00;0.00;0.62;0.00;0.00;0.62;2.40;1.63;;;24.50;20.10;;;;;;2276501;60;20773;-64
2023/04/21 03:19:42;0.00;0.00;0.62;0.00;0.00;0.62;2.73;1.93;;;24.50;20.10;;;;;;2276165;60;20393;-62
2023/04/21 03:22:30;0.00;0.00;0.62;0.00;0.00;0.62;1.90;1.70;;;24.50;20.10;;;;;;2272501;60;20422;-62
2023/04/21 03:25:15;0.00;0.00;0.62;0.00;0.00;0.62;2.43;1.90;;;24.50;20.10;;;;;;2273068;60;20476;-67
2023/04/21 03:28:00;0.00;0.00;0.62;0.00;0.00;0.62;2.73;2.37;;;24.40;20.00;;;;;;2276281;60;20353;-63
2023/04/21 03:30:45;0.00;0.00;0.62;0.00;0.00;0.62;3.20;1.80;;;24.50;20.10;;;;;;2275582;60;20357;-63
2023/04/21 03:33:30;0.00;0.00;0.62;0.00;0.00;0.62;1.90;1.57;;;24.50;20.10;;;;;;2273012;60;20445;-63
2023/04/21 03:36:16;0.00;0.00;0.62;0.00;0.00;0.62;2.53;1.90;;;24.50;20.10;;;;;;2275610;60;20361;-62
2023/04/21 03:39:01;0.00;0.00;0.62;0.00;0.00;0.62;2.10;1.60;;;24.50;20.10;;;;;;2272989;60;20424;-63
2023/04/21 03:41:46;0.00;0.00;0.62;0.00;0.00;0.62;1.90;1.70;;;24.50;20.10;;;;;;2276542;60;20424;-65
2023/04/21 03:44:31;0.00;0.00;0.62;0.00;0.00;0.62;2.20;1.73;;;24.50;20.20;;;;;;2275515;60;21024;-62
2023/04/21 03:47:19;0.00;0.00;0.62;0.00;0.00;0.62;2.80;2.00;;;24.50;20.10;;;;;;2273430;60;20399;-63
2023/04/21 03:50:05;0.00;0.00;0.62;0.00;0.00;0.62;2.00;1.70;;;24.50;20.10;;;;;;2272565;60;20372;-61
2023/04/21 03:52:52;0.00;0.00;0.62;0.00;0.00;0.62;2.20;1.80;;;24.50;20.10;;;;;;2276205;60;20415;-63
2023/04/21 03:55:36;0.00;0.00;0.62;0.00;0.00;0.62;2.20;1.70;;;24.40;20.10;;;;;;2276721;60;20365;-62
2023/04/21 03:58:22;0.00;0.00;0.62;0.00;0.00;0.62;2.10;1.90;;;24.40;20.10;;;;;;2275740;60;20399;-61
2023/04/21 04:01:09;0.00;0.00;0.62;0.00;0.00;0.62;2.20;1.70;;;24.40;20.10;;;;;;2275722;60;20918;-63
2023/04/21 04:03:54;0.00;0.00;0.62;0.00;0.00;0.62;2.00;1.60;;;24.40;20.10;;;;;;2276468;60;20897;-64
2023/04/21 04:06:39;0.00;0.00;0.62;0.00;0.00;0.62;2.57;1.90;;;24.40;20.10;;;;;;2275817;60;20372;-62
2023/04/21 04:09:26;0.00;0.00;0.62;0.00;0.00;0.62;2.00;1.70;;;24.40;20.10;;;;;;2276774;60;20373;-63
2023/04/21 04:12:11;0.00;0.00;0.62;0.00;0.00;0.62;2.10;1.80;;;24.40;20.10;;;;;;2276914;60;20396;-64
2023/04/21 04:14:56;0.00;0.00;0.62;0.00;0.00;0.62;3.20;1.90;;;24.40;20.10;;;;;;2276703;60;20401;-61
2023/04/21 04:17:40;0.00;0.00;0.62;0.00;0.00;0.62;1.80;1.40;;;24.40;20.10;;;;;;2277232;60;20364;-61
2023/04/21 04:20:25;0.00;0.00;0.62;0.00;0.00;0.62;2.03;1.67;;;24.40;20.10;;;;;;2276563;60;20368;-62
2023/04/21 04:23:10;0.00;0.00;0.62;0.00;0.00;0.62;2.00;1.80;;;24.40;20.10;;;;;;2276784;60;20353;-64
2023/04/21 04:25:56;0.00;0.00;0.62;0.00;0.00;0.62;2.40;2.10;;;24.40;20.10;;;;;;2277272;60;20365;-62
2023/04/21 04:28:41;0.00;0.00;0.62;0.00;0.00;0.62;2.30;1.70;;;24.40;20.10;;;;;;2276221;60;20381;-62
2023/04/21 04:31:28;0.00;0.00;0.62;0.00;0.00;0.62;2.10;1.50;;;24.40;20.10;;;;;;2277155;60;20380;-63
2023/04/21 04:34:14;0.00;0.00;0.62;0.00;0.00;0.62;1.90;1.60;;;24.40;20.10;;;;;;2277029;60;20757;-68
2023/04/21 04:37:02;0.00;0.00;0.62;0.00;0.00;0.62;1.97;1.67;;;24.40;20.10;;;;;;2276662;60;20369;-63
2023/04/21 04:39:47;0.00;0.00;0.62;0.00;0.00;0.62;2.10;1.80;;;24.40;20.20;;;;;;2276814;60;20427;-63
2023/04/21 04:42:35;0.00;0.00;0.62;0.00;0.00;0.62;2.07;1.87;;;24.40;20.10;;;;;;2276763;60;21001;-62
2023/04/21 04:45:21;0.00;0.00;0.62;0.00;0.00;0.62;2.10;1.87;;;24.40;20.20;;;;;;2273693;60;21148;-65
2023/04/21 04:48:06;0.00;0.00;0.62;0.00;0.00;0.62;2.00;1.60;;;24.40;20.10;;;;;;2277323;60;20414;-63
2023/04/21 04:50:51;0.00;0.00;0.62;0.00;0.00;0.62;2.30;2.10;;;24.40;20.10;;;;;;2275722;60;20353;-61
2023/04/21 04:53:35;0.00;0.00;0.62;0.00;0.00;0.62;2.10;1.80;;;24.40;20.10;;;;;;2277142;60;20373;-62
2023/04/21 04:56:20;0.00;0.00;0.62;0.00;0.00;0.62;1.90;1.60;;;24.40;20.20;;;;;;2274011;60;20365;-63
2023/04/21 04:59:07;0.00;0.00;0.62;0.00;0.00;0.62;2.00;1.60;;;24.40;20.10;;;;;;2276026;60;20501;-62
2023/04/21 05:01:52;0.00;0.00;0.62;0.00;0.00;0.62;1.90;1.60;;;24.40;20.20;;;;;;2273865;60;20381;-64
2023/04/21 05:04:37;0.00;0.00;0.62;0.00;0.00;0.62;2.20;1.90;;;24.30;20.10;;;;;;2276606;60;20361;-63
2023/04/21 05:07:22;0.00;0.00;0.62;0.00;0.00;0.62;1.70;1.50;;;24.40;20.20;;;;;;2276911;60;20495;-60
2023/04/21 05:10:07;0.00;0.00;0.62;0.00;0.00;0.62;2.03;1.60;;;24.40;20.20;;;;;;2276745;60;20397;-62
2023/04/21 05:12:52;0.00;0.00;0.62;0.00;0.00;0.62;2.03;1.57;;;24.40;20.20;;;;;;2275915;60;20376;-64
2023/04/21 05:15:38;0.00;0.00;0.62;0.00;0.00;0.62;2.10;1.40;;;24.40;20.20;;;;;;2277131;60;20361;-63
2023/04/21 05:18:22;0.00;0.00;0.62;0.00;0.00;0.62;3.90;2.00;;;24.40;20.20;;;;;;2276516;60;20416;-65
2023/04/21 05:21:07;0.00;0.00;0.62;0.00;0.00;0.62;1.60;1.40;;;24.40;20.20;;;;;;2276122;60;20835;-62
2023/04/21 05:23:52;0.00;0.00;0.62;0.00;0.00;0.62;6.37;2.63;;;24.30;20.10;;;;;;2277124;60;20361;-62
2023/04/21 05:26:37;0.00;0.00;0.62;0.00;0.00;0.62;2.20;1.93;;;24.40;20.20;;;;;;2276547;60;20361;-62
2023/04/21 05:32:20;0.00;0.00;0.62;0.00;0.00;0.62;2.50;1.83;;;24.40;20.20;;;;;;2274375;61;20375;-63
2023/04/21 05:35:06;0.00;0.00;0.62;0.00;0.00;0.62;1.80;1.60;;;24.40;20.20;;;;;;2272151;61;20358;-63
2023/04/21 05:37:50;0.00;0.00;0.62;0.00;0.00;0.62;2.20;1.70;;;24.30;20.20;;;;;;2272989;60;20362;-63
2023/04/21 05:40:35;0.00;0.00;0.62;0.00;0.00;0.62;2.53;2.00;;;24.30;20.20;;;;;;2272439;61;20770;-63
2023/04/21 05:43:20;0.00;0.00;0.62;0.00;0.00;0.62;2.00;1.73;;;24.40;20.20;;;;;;2271948;61;20358;-60
2023/04/21 05:46:12;0.00;0.00;0.62;0.00;0.00;0.62;2.30;1.70;;;24.40;20.20;;;;;;2272759;61;20358;-61
2023/04/21 05:48:58;0.00;0.00;0.62;0.00;0.00;0.62;3.20;2.53;;;24.40;20.30;;;;;;2272183;60;20413;-62
2023/04/21 05:51:43;0.00;0.00;0.62;0.00;0.00;0.62;1.97;1.70;;;24.30;20.20;;;;;;2272612;61;20394;-62
2023/04/21 05:54:28;0.00;0.00;0.62;0.00;0.00;0.62;2.30;2.10;;;24.40;20.30;;;;;;2272865;61;20679;-63
2023/04/21 05:57:12;0.00;0.00;0.62;0.00;0.00;0.62;4.30;2.40;;;24.40;20.30;;;;;;2272036;61;20361;-63
2023/04/21 05:59:57;0.00;0.00;0.62;0.00;0.00;0.62;2.93;2.30;;;24.40;20.30;;;;;;2272642;61;20406;-63
2023/04/21 06:02:42;0.00;0.00;0.62;0.00;0.00;0.62;3.37;2.60;;;24.40;20.30;;;;;;2272701;61;20461;-62
2023/04/21 06:05:28;0.00;0.00;0.62;0.00;0.00;0.62;2.33;2.07;;;24.40;20.30;;;;;;2271908;61;20361;-65
2023/04/21 06:08:13;0.00;0.00;0.62;0.00;0.00;0.62;2.67;2.30;;;24.40;20.30;;;;;;2272672;60;20422;-63
2023/04/21 06:10:58;0.00;0.00;0.62;0.00;0.00;0.62;3.53;2.80;;;24.40;20.30;;;;;;2272225;61;20386;-63
2023/04/21 06:13:42;0.00;0.00;0.62;0.00;0.00;0.62;2.47;2.00;;;24.40;20.30;;;;;;2272240;61;20363;-66
2023/04/21 06:16:32;0.00;0.00;0.62;0.00;0.00;0.62;2.80;2.50;;;24.40;20.30;;;;;;2272881;61;20401;-61
2023/04/21 06:19:18;0.00;0.00;0.62;0.00;0.00;0.62;2.70;2.47;;;24.40;20.30;;;;;;2271685;60;20951;-65
2023/04/21 06:22:03;0.00;0.00;0.62;0.00;0.00;0.62;3.30;2.50;;;24.40;20.30;;;;;;2272851;61;20378;-62
2023/04/21 06:24:48;0.00;0.00;0.62;0.00;0.00;0.62;3.20;2.80;;;24.40;20.30;;;;;;2272474;61;20827;-65
2023/04/21 06:27:33;0.00;0.00;0.62;0.00;0.00;0.62;2.53;2.10;;;24.40;20.30;;;;;;2271954;61;20966;-64
2023/04/21 06:30:18;0.00;0.00;0.62;0.00;0.00;0.62;2.67;2.17;;;24.40;20.30;;;;;;2272187;61;20508;-64
2023/04/21 06:33:03;0.00;0.00;0.62;0.00;0.00;0.62;2.70;2.50;;;24.40;20.30;;;;;;2272372;61;20353;-64
2023/04/21 06:35:48;0.00;0.00;0.62;0.00;0.00;0.62;2.63;2.27;;;24.40;20.30;;;;;;2272225;61;20435;-63
2023/04/21 06:38:34;0.00;0.00;0.62;0.00;0.00;0.62;2.83;2.23;;;24.40;20.90;;;;;;2272758;60;20386;-63
2023/04/21 06:41:19;0.00;0.00;0.62;0.00;0.00;0.62;2.73;2.10;;;24.40;20.40;;;;;;2271842;61;20791;-62
2023/04/21 06:44:03;0.00;0.00;0.62;0.00;0.00;0.62;3.00;2.30;;;24.40;20.30;;;;;;2272384;61;20393;-63
2023/04/21 06:46:48;0.00;0.00;0.62;0.00;0.00;0.62;3.40;2.50;;;24.40;20.40;;;;;;2272641;61;20389;-63
2023/04/21 06:49:33;0.00;0.00;0.62;0.00;0.00;0.62;2.30;2.07;;;24.40;20.40;;;;;;2271478;60;20373;-63
2023/04/21 06:52:18;0.00;0.00;0.62;0.00;0.00;0.62;3.73;2.37;;;24.40;20.40;;;;;;2272570;61;20400;-62
2023/04/21 06:55:05;0.00;0.00;0.62;0.00;0.00;0.62;3.00;2.50;;;24.40;20.40;;;;;;2272202;61;20366;-64
2023/04/21 06:57:50;0.00;0.00;0.62;0.00;0.00;0.62;3.20;2.90;;;24.40;20.40;;;;;;2271994;60;20371;-64
2023/04/21 07:00:35;0.00;0.00;0.62;0.00;0.00;0.62;4.10;3.07;;;24.40;20.40;;;;;;2272333;61;20936;-63
2023/04/21 07:03:23;0.00;0.00;0.62;0.00;0.00;0.62;3.27;2.93;;;24.40;20.40;;;;;;2271961;61;20350;-64
2023/04/21 07:06:08;0.00;0.00;0.62;0.00;0.00;0.62;2.63;2.10;;;24.40;20.40;;;;;;2272525;61;20390;-66
2023/04/21 07:08:53;0.00;0.00;0.62;0.00;0.00;0.62;2.90;2.60;;;24.40;20.40;;;;;;2272443;60;20378;-65
2023/04/21 07:11:39;0.00;0.00;0.62;0.00;0.00;0.62;3.60;2.30;;;24.40;20.40;;;;;;2271947;61;21001;-62
2023/04/21 07:14:23;0.00;0.00;0.62;0.00;0.00;0.62;3.07;2.50;;;24.40;20.40;;;;;;2272567;61;20370;-63
2023/04/21 07:17:08;0.00;0.00;0.62;0.00;0.00;0.62;2.80;2.40;;;24.40;20.40;;;;;;2272624;61;20361;-64
2023/04/21 07:19:53;0.00;0.00;0.62;0.00;0.00;0.62;2.80;2.20;;;24.40;20.40;;;;;;2271824;61;20382;-63
2023/04/21 07:22:37;0.00;0.00;0.62;0.00;0.00;0.62;2.87;2.57;;;24.40;20.40;;;;;;2272607;61;20386;-64
2023/04/21 07:25:22;0.00;0.00;0.62;0.00;0.00;0.62;2.87;2.50;;;24.40;20.40;;;;;;2271839;61;20409;-62
2023/04/21 07:28:08;0.00;0.00;0.62;0.00;0.00;0.62;3.20;2.43;;;24.40;20.40;;;;;;2272352;60;20903;-64
2023/04/21 07:30:53;0.00;0.00;0.62;0.00;0.00;0.62;2.40;2.20;;;24.40;20.40;;;;;;2272372;60;20996;-63
2023/04/21 07:33:38;0.00;0.00;0.62;0.00;0.00;0.62;4.87;2.47;;;24.40;20.40;;;;;;2271664;61;20887;-62
2023/04/21 07:36:23;0.00;0.00;0.62;0.00;0.00;0.62;3.20;2.40;;;24.40;20.40;;;;;;2269461;61;20416;-62
2023/04/21 07:39:08;0.00;0.00;0.62;0.00;0.00;0.62;3.90;2.33;;;24.40;20.40;;;;;;2272108;60;20378;-63
2023/04/21 07:41:53;0.00;0.00;0.62;0.00;0.00;0.62;3.43;2.63;;;24.40;20.40;;;;;;2271954;61;20470;-63
2023/04/21 07:44:39;0.00;0.00;0.62;0.00;0.00;0.62;2.97;2.40;;;24.40;20.40;;;;;;2272509;61;20365;-63
2023/04/21 07:47:24;0.00;0.00;0.62;0.00;0.00;0.62;2.63;2.30;;;24.40;20.40;;;;;;2272081;61;20423;-63
2023/04/21 07:50:09;0.00;0.00;0.62;0.00;0.00;0.62;2.83;2.50;;;24.40;20.40;;;;;;2271995;61;20490;-64
2023/04/21 07:52:54;0.00;0.00;0.62;0.00;0.00;0.62;3.20;2.43;;;24.40;20.40;;;;;;2272313;61;20762;-63
2023/04/21 07:55:39;0.00;0.00;0.62;0.00;0.00;0.62;2.63;2.20;;;24.50;20.50;;;;;;2271721;61;20408;-63
2023/04/21 07:58:23;0.00;0.00;0.62;0.00;0.00;0.62;3.03;2.20;;;24.40;20.40;;;;;;2321365;39;20793;-61
2023/04/21 08:01:11;0.00;0.00;0.62;0.00;0.00;0.62;2.97;2.27;;;24.40;20.40;;;;;;2277871;60;20397;-63
2023/04/21 08:03:55;0.00;0.00;0.62;0.00;0.00;0.62;3.33;2.33;;;24.50;20.50;;;;;;2275667;60;20389;-62
2023/04/21 08:06:40;0.00;0.00;0.62;0.00;0.00;0.62;2.23;2.03;;;24.50;20.50;;;;;;2276318;60;20396;-63
2023/04/21 08:09:25;0.00;0.00;0.62;0.00;0.00;0.62;2.77;2.27;;;24.50;20.50;;;;;;2275601;60;20384;-62
2023/04/21 08:12:10;0.00;0.00;0.62;0.00;0.00;0.62;3.63;2.60;;;24.50;20.50;;;;;;2276153;60;20802;-63
2023/04/21 08:14:55;0.00;0.00;0.62;0.00;0.00;0.62;2.20;1.90;;;24.50;20.50;;;;;;2276392;60;20365;-62
2023/04/21 08:17:41;0.00;0.00;0.62;0.00;0.00;0.62;2.70;2.40;;;24.40;20.50;;;;;;2275886;60;20365;-61
2023/04/21 08:20:27;0.00;0.00;0.62;0.00;0.00;0.62;3.83;2.87;;;24.50;20.50;;;;;;2276231;60;20365;-62
2023/04/21 08:23:11;0.00;0.00;0.62;0.00;0.00;0.62;3.10;2.80;;;24.50;20.50;;;;;;2276225;60;20389;-61
2023/04/21 08:25:56;0.00;0.00;0.62;0.00;0.00;0.62;2.93;2.50;;;24.50;20.60;;;;;;2275836;60;20365;-71
2023/04/21 08:28:41;0.00;0.00;0.62;0.00;0.00;0.62;3.30;1.90;;;24.50;20.60;;;;;;2276472;60;20472;-62
2023/04/21 08:31:26;0.00;0.00;0.62;0.00;0.00;0.62;2.07;1.73;;;24.50;20.60;;;;;;2276142;60;20385;-62
2023/04/21 08:34:11;0.00;0.00;0.62;0.00;0.00;0.62;2.97;2.67;;;24.50;20.60;;;;;;2275844;60;20365;-62
2023/04/21 08:36:56;0.00;0.00;0.62;0.00;0.00;0.62;2.37;2.00;;;24.50;20.60;;;;;;2276553;60;20488;-62
2023/04/21 08:39:41;0.00;0.00;0.62;0.00;0.00;0.62;2.30;1.97;;;24.50;20.60;;;;;;2275590;60;20862;-61
2023/04/21 08:42:25;0.00;0.00;0.62;0.00;0.00;0.62;2.20;2.00;;;24.50;20.60;;;;;;2276179;60;20921;-63
2023/04/21 08:45:10;0.00;0.00;0.62;0.00;0.00;0.62;2.80;2.13;;;24.50;20.60;;;;;;2276267;60;20762;-64
2023/04/21 08:47:58;0.00;0.00;0.62;0.00;0.00;0.62;2.60;2.37;;;24.50;20.60;;;;;;2275824;60;20357;-63
2023/04/21 08:50:47;0.00;0.00;0.62;0.00;0.00;0.62;2.10;1.80;;;24.50;20.60;;;;;;2276162;60;20492;-62
2023/04/21 08:53:32;0.00;0.00;0.62;0.00;0.00;0.62;3.13;2.10;;;24.50;20.60;;;;;;2275920;60;20496;-62
2023/04/21 08:56:17;0.00;0.00;0.62;0.00;0.00;0.62;3.50;2.80;;;24.50;20.60;;;;;;2273418;60;20805;-64
2023/04/21 08:59:01;0.00;0.00;0.62;0.00;0.00;0.62;3.20;2.80;;;24.60;20.70;;;;;;2276482;60;20427;-70
2023/04/21 09:02:10;0.00;0.00;0.62;0.00;0.00;0.62;3.10;2.57;;;24.60;20.70;;;;;;2276032;60;20411;-64
2023/04/21 09:04:55;0.00;0.00;0.62;0.00;0.00;0.62;2.63;2.27;;;24.60;20.70;;;;;;2276783;60;20886;-64
2023/04/21 09:07:41;0.00;0.00;0.62;0.00;0.00;0.62;2.97;2.43;;;24.50;20.70;;;;;;2277283;60;20389;-63
2023/04/21 09:10:25;0.00;0.00;0.62;0.00;0.00;0.62;3.63;2.37;;;24.60;20.70;;;;;;2276018;60;20426;-64
2023/04/21 09:13:10;0.00;0.00;0.62;0.00;0.00;0.62;3.13;2.83;;;24.60;20.70;;;;;;2277071;60;20855;-62
2023/04/21 09:15:55;0.00;0.00;0.62;0.00;0.00;0.62;2.20;2.00;;;24.60;20.80;;;;;;2276512;60;20454;-64
2023/04/21 09:18:41;0.00;0.00;0.62;0.00;0.00;0.62;3.70;2.10;;;24.60;20.70;;;;;;2276521;60;20843;-62
2023/04/21 09:21:27;0.00;0.00;0.62;0.00;0.00;0.62;2.33;1.90;;;24.60;20.70;;;;;;2276982;60;20389;-64
2023/04/21 09:24:14;0.00;0.00;0.62;0.00;0.00;0.62;2.63;2.27;;;24.60;20.80;;;;;;2276166;60;20424;-65
2023/04/21 09:27:02;0.00;0.00;0.62;0.00;0.00;0.62;2.90;2.37;;;24.60;20.80;;;;;;2276915;60;20465;-65
2023/04/21 09:32:57;0.00;0.00;0.62;0.00;0.00;0.62;3.20;2.50;;;24.60;20.80;;;;;;2277748;60;20373;-67
2023/04/21 09:35:41;0.00;0.00;0.62;0.00;0.00;0.62;3.23;2.17;;;24.60;20.80;;;;;;2276995;60;20397;-65
2023/04/21 09:38:26;0.00;0.00;0.62;0.00;0.00;0.62;2.37;2.00;;;24.70;20.90;;;;;;2273100;60;20906;-62
2023/04/21 09:41:15;0.00;0.00;0.62;0.00;0.00;0.62;3.90;2.90;;;24.70;20.90;;;;;;2276516;60;20393;-62
2023/04/21 09:44:02;0.00;0.00;0.62;0.00;0.00;0.62;2.53;2.30;;;24.70;20.90;;;;;;2276662;60;20366;-64
2023/04/21 09:46:52;0.00;0.00;0.62;0.00;0.00;0.62;3.57;2.53;;;24.70;20.90;;;;;;2276008;60;20383;-61
2023/04/21 09:52:33;0.00;0.00;0.62;0.00;0.00;0.62;2.90;2.47;;;24.70;20.90;;;;;;2278012;60;20466;-65
2023/04/21 09:55:21;0.00;0.00;0.62;0.00;0.00;0.62;2.60;2.30;;;24.80;21.00;;;;;;2276344;60;20400;-64
2023/04/21 09:58:12;0.00;0.00;0.62;0.00;0.00;0.62;2.70;2.20;;;24.70;20.90;;;;;;2276906;60;20365;-63
2023/04/21 10:00:57;0.00;0.00;0.62;0.00;0.00;0.62;2.90;2.47;;;24.70;20.90;;;;;;2272531;60;20365;-62
2023/04/21 10:03:47;0.00;0.00;0.62;0.00;0.00;0.62;2.87;2.57;;;24.80;21.00;;;;;;2276267;60;20383;-64
2023/04/21 10:06:32;0.00;0.00;0.62;0.00;0.00;0.62;3.17;2.60;;;24.80;21.00;;;;;;2276729;60;20379;-65
2023/04/21 10:09:19;0.00;0.00;0.62;0.00;0.00;0.62;2.43;2.10;;;24.80;21.00;;;;;;2272444;60;20466;-64
2023/04/21 10:12:05;0.00;0.00;0.62;0.00;0.00;0.62;2.80;2.30;;;24.80;21.00;;;;;;2276783;60;20480;-64
2023/04/21 10:14:52;0.00;0.00;0.62;0.00;0.00;0.62;2.47;2.23;;;24.80;21.00;;;;;;2276485;60;20362;-64
2023/04/21 10:17:37;0.00;0.00;0.62;0.00;0.00;0.62;2.60;2.13;;;24.80;21.00;;;;;;2276480;60;20780;-64
2023/04/21 10:20:22;0.00;0.00;0.62;0.00;0.00;0.62;3.70;2.90;;;24.80;21.00;;;;;;2276397;60;20446;-62
2023/04/21 10:23:07;0.00;0.00;0.62;0.00;0.00;0.62;2.47;2.10;;;24.90;21.10;;;;;;2276161;60;20389;-64
2023/04/21 10:25:52;0.00;0.00;0.62;0.00;0.00;0.62;2.90;2.57;;;24.90;21.20;;;;;;2276826;60;20377;-64
2023/04/21 10:28:53;0.00;0.00;0.62;0.00;0.00;0.62;3.30;2.90;;;24.90;21.10;;;;;;2276548;60;20742;-62
2023/04/21 10:31:50;0.00;0.00;0.62;0.00;0.00;0.62;4.50;2.60;;;24.90;21.10;;;;;;2275985;60;20399;-63
2023/04/21 10:34:37;0.00;0.00;0.62;0.00;0.00;0.62;2.77;2.30;;;24.90;21.10;;;;;;2276757;60;20403;-63
2023/04/21 10:37:21;0.00;0.00;0.62;0.00;0.00;0.62;2.90;2.60;;;24.90;21.20;;;;;;2276478;60;20845;-64
2023/04/21 10:40:36;0.00;0.00;0.62;0.00;0.00;0.62;2.80;2.50;;;25.00;21.20;;;;;;2276049;60;20442;-64
2023/04/21 10:43:42;0.00;0.00;0.62;0.00;0.00;0.62;2.33;2.00;;;25.00;21.20;;;;;;2276509;60;20439;-64
2023/04/21 10:46:35;0.00;0.00;0.62;0.00;0.00;0.62;2.80;2.20;;;25.00;21.20;;;;;;2275248;60;20369;-68
2023/04/21 10:49:26;0.00;0.00;0.62;0.00;0.00;0.62;3.30;2.60;;;25.00;21.30;;;;;;2276385;60;20408;-63
2023/04/21 10:52:15;0.00;0.00;0.62;0.00;0.00;0.62;2.50;2.10;;;25.10;21.30;;;;;;2276062;60;20819;-63
2023/04/21 10:55:11;0.00;0.00;0.62;0.00;0.00;0.62;2.27;2.03;;;25.00;21.20;;;;;;2276412;60;20403;-65
2023/04/21 10:57:57;0.00;0.00;0.62;0.00;0.00;0.62;2.20;1.87;;;25.10;21.30;;;;;;2276555;60;20988;-63
2023/04/21 11:00:42;0.00;0.00;0.62;0.00;0.00;0.62;2.40;2.10;;;25.10;21.30;;;;;;2275553;60;20466;-63
2023/04/21 11:03:34;0.00;0.00;0.62;0.00;0.00;0.62;3.07;2.40;;;25.10;21.30;;;;;;2276324;60;20389;-63
2023/04/21 11:06:20;0.00;0.00;0.62;0.00;0.00;0.62;2.80;2.33;;;25.10;21.30;;;;;;2273518;60;20434;-63